Alleyton, Texas
Current Conditions -  °F | °C
As of 12:55 PM on Monday 20 Oct 2014 (Local Time) from K66R Reporting Station
Clear Clear  
Wind Chill: 80°   Ceiling: Unl
Heat Index: 82°   Visibility: 10mi
Dew Point: 63°   Wind: 8mph
Humidity: 56%   Direction: 50°NE
Pressure: 30.04"   Gusts: NA
Location:  29.71°N, 96.49°W
Report Text: K66R 201755Z AUTO 05007KT 10SM CLR 27/17 A3004 RMK AO2 T02680174 10268 20155
Loading
Personal Weather Stations






























Interactive Weather Map New forecast layout! Learn more

10-Day Weather Forecast

Advertisements
Track Severe Weather on mobile